TimeCST,TemperatureF,Dew PointF,Humidity,Sea Level PressureIn,VisibilityMPH,Wind Direction,Wind SpeedMPH,Gust SpeedMPH,PrecipitationIn,Events,Conditions,WindDirDegrees,DateUTC
12:53 AM,46.9,46.9,100,30.18,1.0,NNW,3.5,-,N/A,,Mist,330,2014-01-19 06:53:00
1:04 AM,46.9,46.9,100,30.18,0.2,NNW,3.5,-,N/A,Fog,Fog,330,2014-01-19 07:04:00
1:53 AM,48.0,46.9,96,30.17,0.5,West,3.5,-,N/A,Fog,Fog,270,2014-01-19 07:53:00
2:53 AM,50.0,48.9,96,30.17,0.2,WSW,4.6,-,N/A,Fog,Fog,240,2014-01-19 08:53:00
3:53 AM,46.9,46.9,100,30.18,0.5,WNW,3.5,-,N/A,Fog,Fog,290,2014-01-19 09:53:00
4:53 AM,46.9,46.0,97,30.19,0.2,Calm,Calm,-,N/A,Fog,Fog,0,2014-01-19 10:53:00
5:53 AM,46.9,46.9,100,30.21,0.2,Calm,Calm,-,N/A,Fog,Fog,0,2014-01-19 11:53:00
6:53 AM,48.0,48.0,100,30.23,0.2,NW,4.6,-,N/A,Fog,Fog,320,2014-01-19 12:53:00
7:53 AM,48.9,48.0,97,30.27,0.2,North,5.8,-,N/A,Fog,Fog,350,2014-01-19 13:53:00
8:36 AM,50.0,48.9,96,30.28,2.0,North,8.1,-,N/A,,Mostly Cloudy,360,2014-01-19 14:36:00
8:43 AM,51.1,50.0,96,30.28,9.0,North,10.4,-,N/A,,Scattered Clouds,360,2014-01-19 14:43:00
8:53 AM,52.0,51.1,97,30.29,10.0,North,10.4,-,N/A,,Partly Cloudy,10,2014-01-19 14:53:00
9:53 AM,57.9,48.9,72,30.30,10.0,NNE,15.0,-,N/A,,Clear,30,2014-01-19 15:53:00
10:53 AM,64.0,45.0,50,30.30,10.0,NE,12.7,-,N/A,,Clear,50,2014-01-19 16:53:00
11:53 AM,68.0,42.1,39,30.28,10.0,NE,8.1,-,N/A,,Clear,40,2014-01-19 17:53:00
12:53 PM,70.0,37.9,31,30.24,10.0,North,5.8,-,N/A,,Clear,360,2014-01-19 18:53:00
1:53 PM,72.0,37.0,28,30.20,10.0,Variable,5.8,-,N/A,,Clear,0,2014-01-19 19:53:00
2:53 PM,68.0,45.0,43,30.19,10.0,South,11.5,16.1,N/A,,Clear,190,2014-01-19 20:53:00
3:53 PM,66.0,37.0,34,30.19,10.0,SE,12.7,-,N/A,,Clear,140,2014-01-19 21:53:00
4:53 PM,64.0,36.0,35,30.19,10.0,SSE,11.5,-,N/A,,Clear,150,2014-01-19 22:53:00
5:53 PM,55.9,39.0,53,30.19,10.0,SE,6.9,-,N/A,,Clear,140,2014-01-19 23:53:00
6:53 PM,54.0,44.1,69,30.19,10.0,SE,4.6,-,N/A,,Clear,130,2014-01-20 00:53:00
7:53 PM,52.0,46.0,80,30.19,10.0,SE,3.5,-,N/A,,Clear,130,2014-01-20 01:53:00
8:53 PM,48.9,44.1,83,30.19,10.0,ESE,3.5,-,N/A,,Clear,120,2014-01-20 02:53:00
9:53 PM,48.9,46.0,90,30.17,10.0,SE,6.9,-,N/A,,Clear,130,2014-01-20 03:53:00
10:53 PM,46.9,46.0,97,30.16,10.0,SE,5.8,-,N/A,,Clear,140,2014-01-20 04:53:00
11:53 PM,53.1,52.0,96,30.15,6.0,SSE,6.9,-,N/A,,Clear,160,2014-01-20 05:53:00